SAS2752 EPWA-EKCH
Flight info
| Callsign | SAS2752 |
|---|---|
| Flight time | N/A |
| Altitude | 36000 |
| Route | OLILA L621 LUSID DCT ROE M743 TIDVU |
| Aircraft | A20N/M-SDE2E3FGHIRWXY/LB1 |
Departure
| Time | 2026-05-01 10:53 |
|---|---|
| Airport | Warsaw Chopin Airport (EPWA) |
Arrival
| Time | N/A |
|---|---|
| Airport | Copenhagen Kastrup Airport (EKCH) |
| Time | Latitude | Longitude | Altitude | Speed | Heading |
|---|---|---|---|---|---|
| 2026-05-01 10:32 | 52.16958 | 20.97193 | 342 ft | 0 kts | 68° |
| 2026-05-01 10:43 | 52.16958 | 20.97192 | 342 ft | 1 kts | 68° |
| 2026-05-01 10:43 | 52.16949 | 20.97155 | 353 ft | 4 kts | 68° |
| 2026-05-01 10:44 | 52.16938 | 20.97114 | 347 ft | 4 kts | 68° |
| 2026-05-01 10:44 | 52.16930 | 20.97081 | 351 ft | 4 kts | 79° |
| 2026-05-01 10:44 | 52.16933 | 20.97043 | 350 ft | 4 kts | 132° |
| 2026-05-01 10:44 | 52.16952 | 20.97020 | 349 ft | 2 kts | 152° |
| 2026-05-01 10:45 | 52.16953 | 20.97019 | 348 ft | 1 kts | 152° |
| 2026-05-01 10:48 | 52.16922 | 20.97046 | 345 ft | 12 kts | 152° |
| 2026-05-01 10:48 | 52.16826 | 20.97129 | 345 ft | 17 kts | 152° |
| 2026-05-01 10:48 | 52.16715 | 20.97224 | 349 ft | 20 kts | 152° |
| 2026-05-01 10:49 | 52.16595 | 20.97333 | 345 ft | 20 kts | 141° |
| 2026-05-01 10:49 | 52.16531 | 20.97523 | 346 ft | 19 kts | 115° |
| 2026-05-01 10:49 | 52.16475 | 20.97718 | 350 ft | 19 kts | 114° |
| 2026-05-01 10:49 | 52.16419 | 20.97917 | 344 ft | 20 kts | 115° |
| 2026-05-01 10:50 | 52.16362 | 20.98120 | 344 ft | 20 kts | 114° |
| 2026-05-01 10:50 | 52.16305 | 20.98328 | 347 ft | 20 kts | 114° |
| 2026-05-01 10:50 | 52.16219 | 20.98461 | 342 ft | 18 kts | 197° |
| 2026-05-01 10:50 | 52.16191 | 20.98442 | 341 ft | 1 kts | 203° |
| 2026-05-01 10:51 | 52.16183 | 20.98437 | 341 ft | 2 kts | 203° |
| 2026-05-01 10:51 | 52.16167 | 20.98426 | 336 ft | 3 kts | 203° |
| 2026-05-01 10:51 | 52.16142 | 20.98408 | 338 ft | 5 kts | 203° |
| 2026-05-01 10:51 | 52.16118 | 20.98378 | 336 ft | 4 kts | 240° |
| 2026-05-01 10:52 | 52.16119 | 20.98337 | 336 ft | 4 kts | 292° |
| 2026-05-01 10:52 | 52.16133 | 20.98286 | 339 ft | 16 kts | 295° |
| 2026-05-01 10:52 | 52.16283 | 20.97756 | 344 ft | 85 kts | 294° |
| 2026-05-01 10:52 | 52.16616 | 20.96571 | 350 ft | 143 kts | 295° |
| 2026-05-01 10:53 | 52.17078 | 20.94942 | 595 ft | 161 kts | 300° |
| 2026-05-01 10:53 | 52.17609 | 20.93359 | 1285 ft | 158 kts | 303° |
| 2026-05-01 10:53 | 52.18163 | 20.91818 | 1985 ft | 156 kts | 304° |
| 2026-05-01 10:53 | 52.18658 | 20.90127 | 2424 ft | 178 kts | 294° |
| 2026-05-01 10:54 | 52.19408 | 20.88465 | 2669 ft | 198 kts | 330° |
| 2026-05-01 10:54 | 52.20828 | 20.87722 | 2980 ft | 234 kts | 347° |
| 2026-05-01 10:54 | 52.22393 | 20.86645 | 3730 ft | 250 kts | 322° |
| 2026-05-01 10:54 | 52.23668 | 20.84737 | 4813 ft | 253 kts | 318° |
| 2026-05-01 10:55 | 52.24913 | 20.82692 | 5865 ft | 256 kts | 317° |
| 2026-05-01 10:55 | 52.26219 | 20.80741 | 6906 ft | 253 kts | 329° |
| 2026-05-01 10:55 | 52.27804 | 20.79548 | 7842 ft | 252 kts | 347° |
| 2026-05-01 10:55 | 52.29519 | 20.78911 | 8765 ft | 254 kts | 352° |
| 2026-05-01 10:56 | 52.31268 | 20.78385 | 9723 ft | 257 kts | 353° |
| 2026-05-01 10:56 | 52.33044 | 20.77862 | 10625 ft | 262 kts | 353° |
| 2026-05-01 10:56 | 52.34917 | 20.77499 | 11063 ft | 281 kts | 2° |
| 2026-05-01 10:56 | 52.35590 | 20.77505 | 11227 ft | 287 kts | 4° |